Time;durP1;ratioP1;P1;durP2;ratioP2;P2;SDS_P1;SDS_P2;PMS_P1;PMS_P2;Temp;Humidity;BMP_temperature;BMP_pressure;BME280_temperature;BME280_humidity;BME280_pressure;Samples;Min_cycle;Max_cycle;Signal;HPM_P1;HPM_P2
2021/09/10 00:00:19;;;;;;;;;0.00;0.00;;;;;28.56;44.01;100376.41;5055900;28;46111;-65
2021/09/10 00:02:44;;;;;;;;;0.00;0.00;;;;;28.56;43.72;100384.63;5055822;28;45518;-65
2021/09/10 00:05:10;;;;;;;;;0.00;0.00;;;;;28.58;44.11;100393.63;5055728;28;45449;-66
2021/09/10 00:07:36;;;;;;;;;0.00;0.00;;;;;28.57;44.12;100388.22;5055881;28;45462;-66
2021/09/10 00:10:03;;;;;;;;;0.00;0.00;;;;;28.57;43.45;100385.50;5055400;28;45556;-65
2021/09/10 00:12:28;;;;;;;;;0.00;0.00;;;;;28.56;43.73;100383.72;5055611;28;45480;-65
2021/09/10 00:14:54;;;;;;;;;0.00;0.00;;;;;28.55;43.86;100374.66;5055518;28;45473;-65
2021/09/10 00:17:19;;;;;;;;;0.00;0.00;;;;;28.55;43.60;100373.78;5055817;28;45512;-65
2021/09/10 00:19:51;;;;;;;;;0.00;0.00;;;;;28.55;43.83;100365.56;5054867;28;45427;-65
2021/09/10 00:22:17;;;;;;;;;0.00;0.00;;;;;28.54;43.61;100367.41;5055307;28;45594;-65
2021/09/10 00:24:42;;;;;;;;;0.00;0.00;;;;;28.53;43.83;100362.94;5055246;28;45559;-65
2021/09/10 00:27:07;;;;;;;;;0.00;0.00;;;;;28.56;43.60;100370.03;5055630;28;45471;-65
2021/09/10 00:29:33;;;;;;;;;0.00;0.00;;;;;28.53;44.03;100366.53;5036996;28;45475;-65
2021/09/10 00:31:58;;;;;;;;;0.00;0.00;;;;;28.53;43.89;100363.78;5054510;28;45479;-65
2021/09/10 00:34:23;;;;;;;;;0.00;0.00;;;;;28.52;43.52;100355.69;5055501;28;45579;-65
2021/09/10 00:36:49;;;;;;;;;0.00;0.00;;;;;28.52;43.77;100362.06;5055454;28;45443;-65
2021/09/10 00:39:17;;;;;;;;;0.00;0.00;;;;;28.49;43.82;100361.34;5054809;28;46566;-65
2021/09/10 00:41:43;;;;;;;;;0.00;0.00;;;;;28.50;44.05;100369.50;5055346;28;45676;-64
2021/09/10 00:44:08;;;;;;;;;0.00;0.00;;;;;28.49;43.67;100370.44;5055337;28;45540;-65
2021/09/10 00:46:33;;;;;;;;;0.00;0.00;;;;;28.50;44.24;100374.97;5036883;28;45727;-65
2021/09/10 00:48:59;;;;;;;;;0.00;0.00;;;;;28.50;44.01;100380.44;5054624;28;46278;-65
2021/09/10 00:51:25;;;;;;;;;0.00;0.00;;;;;28.50;43.76;100385.91;5037004;28;45454;-65
2021/09/10 00:53:51;;;;;;;;;0.00;0.00;;;;;28.49;43.95;100389.56;5037126;28;45553;-65
2021/09/10 00:56:16;;;;;;;;;0.00;0.00;;;;;28.50;43.82;100388.66;5055452;28;45496;-64
2021/09/10 00:58:42;;;;;;;;;0.00;0.00;;;;;28.50;43.92;100394.13;5054972;28;45718;-65
2021/09/10 01:01:08;;;;;;;;;0.00;0.00;;;;;28.48;43.95;100387.84;5036961;28;45464;-66
2021/09/10 01:03:34;;;;;;;;;0.00;0.00;;;;;28.49;43.90;100389.56;5055085;28;45486;-65
2021/09/10 01:06:01;;;;;;;;;0.00;0.00;;;;;28.48;44.20;100398.78;5054880;28;45504;-65
2021/09/10 01:08:28;;;;;;;;;0.00;0.00;;;;;28.48;44.24;100396.03;5054530;28;45514;-65
2021/09/10 01:10:54;;;;;;;;;0.00;0.00;;;;;28.48;43.95;100393.31;5054320;28;45433;-65
2021/09/10 01:13:23;;;;;;;;;0.00;0.00;;;;;28.51;43.84;100394.97;5054841;28;45456;-65
2021/09/10 01:15:49;;;;;;;;;0.00;0.00;;;;;28.46;44.32;100389.78;5055202;28;45444;-65
2021/09/10 01:18:14;;;;;;;;;0.00;0.00;;;;;28.47;43.96;100397.00;5056343;28;46465;-65
2021/09/10 01:20:40;;;;;;;;;0.00;0.00;;;;;28.48;44.11;100389.66;5054376;28;45461;-65
2021/09/10 01:23:05;;;;;;;;;0.00;0.00;;;;;28.46;44.30;100389.78;5054599;28;45559;-65
2021/09/10 01:25:31;;;;;;;;;0.00;0.00;;;;;28.48;43.77;100393.31;5054708;28;45715;-65
2021/09/10 01:27:59;;;;;;;;;0.00;0.00;;;;;28.47;44.06;100393.41;5054718;28;46011;-65
2021/09/10 01:30:31;;;;;;;;;0.00;0.00;;;;;28.47;44.28;100405.22;5054480;28;45421;-65
2021/09/10 01:32:59;;;;;;;;;0.00;0.00;;;;;28.48;44.16;100406.97;5054447;28;45430;-65
2021/09/10 01:35:24;;;;;;;;;0.00;0.00;;;;;28.46;43.76;100410.78;5020184;28;45780;-65
2021/09/10 01:37:49;;;;;;;;;0.00;0.00;;;;;28.44;43.84;100407.25;5054555;28;46036;-65
2021/09/10 01:40:15;;;;;;;;;0.00;0.00;;;;;28.47;44.05;100418.88;5055142;28;45401;-65
2021/09/10 01:42:41;;;;;;;;;0.00;0.00;;;;;28.47;43.69;100418.03;5054504;28;45471;-65
2021/09/10 01:45:10;;;;;;;;;0.00;0.00;;;;;28.47;43.97;100413.41;5035365;28;45495;-65
2021/09/10 01:47:36;;;;;;;;;0.00;0.00;;;;;28.46;43.69;100408.03;5054415;28;46308;-65
2021/09/10 01:50:08;;;;;;;;;0.00;0.00;;;;;28.45;43.52;100409.91;5054589;28;45424;-64
2021/09/10 01:52:33;;;;;;;;;0.00;0.00;;;;;28.43;44.40;100411.88;5035793;28;45507;-64
2021/09/10 01:54:59;;;;;;;;;0.00;0.00;;;;;28.46;44.11;100411.69;5054276;28;45477;-64
2021/09/10 01:57:24;;;;;;;;;0.00;0.00;;;;;28.44;44.19;100408.16;5053931;28;46666;-65
2021/09/10 01:59:49;;;;;;;;;0.00;0.00;;;;;28.43;44.25;100406.41;5054162;28;45435;-65
2021/09/10 02:02:15;;;;;;;;;0.00;0.00;;;;;28.45;44.13;100420.84;5054402;28;45725;-65
2021/09/10 02:04:40;;;;;;;;;0.00;0.00;;;;;28.43;43.59;100411.88;5054012;28;45623;-65
2021/09/10 02:07:06;;;;;;;;;0.00;0.00;;;;;28.43;44.19;100403.66;5053751;28;46160;-65
2021/09/10 02:09:35;;;;;;;;;0.00;0.00;;;;;28.44;43.85;100399.97;5053885;28;45452;-65
2021/09/10 02:12:04;;;;;;;;;0.00;0.00;;;;;28.43;43.53;100400.94;5053806;28;45436;-65
2021/09/10 02:14:33;;;;;;;;;0.00;0.00;;;;;28.43;43.85;100400.94;5054123;28;45718;-65
2021/09/10 02:16:59;;;;;;;;;0.00;0.00;;;;;28.43;43.61;100411.00;5053529;28;46415;-65
2021/09/10 02:19:24;;;;;;;;;0.00;0.00;;;;;28.44;44.09;100415.47;5053521;28;45559;-66
2021/09/10 02:21:50;;;;;;;;;0.00;0.00;;;;;28.42;44.29;100421.06;5053947;28;45662;-65
2021/09/10 02:24:16;;;;;;;;;0.00;0.00;;;;;28.43;44.33;100416.47;5054330;28;45732;-64
2021/09/10 02:26:42;;;;;;;;;0.00;0.00;;;;;28.41;43.89;100419.28;5053550;28;46264;-65
2021/09/10 02:29:08;;;;;;;;;0.00;0.00;;;;;28.39;44.01;100418.53;5035730;28;45817;-65
2021/09/10 02:31:33;;;;;;;;;0.00;0.00;;;;;28.41;43.99;100419.28;5053740;28;45428;-65
2021/09/10 02:33:59;;;;;;;;;0.00;0.00;;;;;28.40;44.01;100425.75;5053907;28;45525;-65
2021/09/10 02:36:24;;;;;;;;;0.00;0.00;;;;;28.41;44.12;100427.50;5053651;28;45608;-66
2021/09/10 02:38:50;;;;;;;;;0.00;0.00;;;;;28.40;44.27;100423.03;5053684;28;45462;-65
2021/09/10 02:41:17;;;;;;;;;0.00;0.00;;;;;28.39;44.14;100421.25;5053986;28;45489;-65
2021/09/10 02:43:42;;;;;;;;;0.00;0.00;;;;;28.39;44.03;100421.25;5053755;28;45420;-65
2021/09/10 02:46:08;;;;;;;;;0.00;0.00;;;;;28.41;44.40;100424.75;5035201;28;46519;-65
2021/09/10 02:48:33;;;;;;;;;0.00;0.00;;;;;28.40;44.01;100431.22;5053208;28;45436;-65
2021/09/10 02:50:58;;;;;;;;;0.00;0.00;;;;;28.38;43.73;100422.25;5053566;28;45412;-65
2021/09/10 02:53:25;;;;;;;;;0.00;0.00;;;;;28.40;44.08;100427.59;5053126;28;45461;-65
2021/09/10 02:55:51;;;;;;;;;0.00;0.00;;;;;28.39;43.93;100421.25;5055339;28;45477;-65
2021/09/10 02:58:17;;;;;;;;;0.00;0.00;;;;;28.38;43.82;100422.25;5038432;28;45584;-66
2021/09/10 03:00:42;;;;;;;;;0.00;0.00;;;;;28.38;44.22;100408.56;5056564;28;45370;-65
2021/09/10 03:03:08;;;;;;;;;0.00;0.00;;;;;28.38;43.97;100411.31;5057086;28;45460;-65
2021/09/10 03:05:34;;;;;;;;;0.00;0.00;;;;;28.37;44.00;100409.53;5038275;28;47305;-64
2021/09/10 03:08:00;;;;;;;;;0.00;0.00;;;;;28.37;44.06;100401.34;5056775;28;45539;-66
2021/09/10 03:10:25;;;;;;;;;0.00;0.00;;;;;28.34;43.97;100396.06;5056946;28;45772;-65
2021/09/10 03:12:50;;;;;;;;;0.00;0.00;;;;;28.37;44.33;100406.81;5057031;28;45443;-65
2021/09/10 03:15:16;;;;;;;;;0.00;0.00;;;;;28.38;44.28;100402.19;5056685;28;45428;-66
2021/09/10 03:17:43;;;;;;;;;0.00;0.00;;;;;28.38;44.01;100408.56;5038230;28;45491;-65
2021/09/10 03:20:10;;;;;;;;;0.00;0.00;;;;;28.37;44.11;100409.53;5056080;28;45409;-65
2021/09/10 03:22:36;;;;;;;;;0.00;0.00;;;;;28.35;43.94;100408.75;5041363;28;45498;-66
2021/09/10 03:25:03;;;;;;;;;0.00;0.00;;;;;28.37;43.91;100406.81;5056385;28;45749;-65
2021/09/10 03:27:29;;;;;;;;;0.00;0.00;;;;;28.36;44.13;100405.06;5038045;28;45474;-66
2021/09/10 03:29:54;;;;;;;;;0.00;0.00;;;;;28.37;44.15;100404.06;5056371;28;45532;-66
2021/09/10 03:32:20;;;;;;;;;0.00;0.00;;;;;28.35;43.94;100403.28;5056097;28;45519;-65
2021/09/10 03:34:45;;;;;;;;;0.00;0.00;;;;;28.35;44.10;100396.94;5055977;28;46292;-66
2021/09/10 03:37:13;;;;;;;;;0.00;0.00;;;;;28.35;43.73;100408.75;5056461;28;45638;-66
2021/09/10 03:39:38;;;;;;;;;0.00;0.00;;;;;28.36;44.18;100405.06;5055815;28;45428;-65
2021/09/10 03:42:05;;;;;;;;;0.00;0.00;;;;;28.35;44.47;100407.88;5056262;28;45552;-66
2021/09/10 03:44:30;;;;;;;;;0.00;0.00;;;;;28.36;44.00;100412.38;5055793;28;46193;-65
2021/09/10 03:46:56;;;;;;;;;0.00;0.00;;;;;28.33;43.77;100399.78;5056126;28;45747;-65
2021/09/10 03:49:21;;;;;;;;;0.00;0.00;;;;;28.35;43.71;100414.22;5037860;28;45558;-66
2021/09/10 03:51:46;;;;;;;;;0.00;0.00;;;;;28.31;44.14;100408.06;5056021;28;45527;-65
2021/09/10 03:54:12;;;;;;;;;0.00;0.00;;;;;28.34;43.75;100409.75;5055439;28;45480;-65
2021/09/10 03:56:37;;;;;;;;;0.00;0.00;;;;;28.32;44.39;100408.97;5055586;28;45547;-66
2021/09/10 03:59:03;;;;;;;;;0.00;0.00;;;;;28.34;43.75;100407.03;5055892;28;45399;-65
2021/09/10 04:01:28;;;;;;;;;0.00;0.00;;;;;28.32;44.39;100403.50;5037358;28;45481;-65
2021/09/10 04:03:53;;;;;;;;;0.00;0.00;;;;;28.33;44.35;100402.50;5037444;28;45916;-65
2021/09/10 04:06:20;;;;;;;;;0.00;0.00;;;;;28.34;43.85;100404.28;5054813;28;45377;-65
2021/09/10 04:08:45;;;;;;;;;0.00;0.00;;;;;28.30;43.80;100395.41;5055795;28;45571;-65
2021/09/10 04:11:11;;;;;;;;;0.00;0.00;;;;;28.33;44.45;100402.50;5055614;28;45461;-65
2021/09/10 04:13:36;;;;;;;;;0.00;0.00;;;;;28.32;43.93;100398.03;5055651;28;45808;-65
2021/09/10 04:16:01;;;;;;;;;0.00;0.00;;;;;28.32;43.68;100392.56;5055608;28;45521;-65
2021/09/10 04:18:28;;;;;;;;;0.00;0.00;;;;;28.32;44.14;100398.03;5055341;28;45678;-65
2021/09/10 04:20:53;;;;;;;;;0.00;0.00;;;;;28.31;43.87;100405.34;5055015;28;45409;-65
2021/09/10 04:23:18;;;;;;;;;0.00;0.00;;;;;28.26;44.40;100387.50;5054327;28;45480;-65
2021/09/10 04:25:44;;;;;;;;;0.00;0.00;;;;;28.30;44.06;100397.25;5037426;28;45422;-65
2021/09/10 04:28:10;;;;;;;;;0.00;0.00;;;;;28.29;43.99;100392.75;5055355;28;45685;-65
2021/09/10 04:30:35;;;;;;;;;0.00;0.00;;;;;28.29;43.96;100393.63;5055310;28;45465;-65
2021/09/10 04:33:01;;;;;;;;;0.00;0.00;;;;;28.30;44.01;100391.78;5055264;28;46284;-66
2021/09/10 04:35:26;;;;;;;;;0.00;0.00;;;;;28.31;43.78;100401.72;5037104;28;45794;-65
2021/09/10 04:37:52;;;;;;;;;0.00;0.00;;;;;28.28;44.30;100393.75;5055211;28;45729;-65
2021/09/10 04:40:18;;;;;;;;;0.00;0.00;;;;;28.29;44.38;100398.22;5036925;28;45441;-65
2021/09/10 04:42:45;;;;;;;;;0.00;0.00;;;;;28.28;44.20;100391.88;5036291;28;45495;-65
2021/09/10 04:45:11;;;;;;;;;0.00;0.00;;;;;28.29;44.43;100396.34;5020041;28;45555;-66
2021/09/10 04:47:36;;;;;;;;;0.00;0.00;;;;;28.27;43.82;100395.56;5055005;28;45497;-66
2021/09/10 04:50:03;;;;;;;;;0.00;0.00;;;;;28.28;44.11;100397.34;5055171;28;45409;-65
2021/09/10 04:52:28;;;;;;;;;0.00;0.00;;;;;28.26;44.29;100399.31;5054708;28;46396;-66
2021/09/10 04:54:54;;;;;;;;;0.00;0.00;;;;;28.28;44.32;100401.94;5054823;28;45510;-65
2021/09/10 04:57:20;;;;;;;;;0.00;0.00;;;;;28.27;44.29;100398.31;5054975;28;45487;-65
2021/09/10 04:59:45;;;;;;;;;0.00;0.00;;;;;28.26;44.35;100399.31;5054941;28;45582;-66
2021/09/10 05:02:11;;;;;;;;;0.00;0.00;;;;;28.26;44.32;100406.66;5036539;28;45507;-65
2021/09/10 05:04:36;;;;;;;;;0.00;0.00;;;;;28.24;44.43;100401.25;5054841;28;45793;-65
2021/09/10 05:07:02;;;;;;;;;0.00;0.00;;;;;28.28;44.52;100412.88;5054659;28;45478;-65
2021/09/10 05:09:27;;;;;;;;;0.00;0.00;;;;;28.27;43.70;100420.19;5054476;28;45512;-65
2021/09/10 05:11:52;;;;;;;;;0.00;0.00;;;;;28.24;44.00;100406.75;5054387;28;46154;-65
2021/09/10 05:14:18;;;;;;;;;0.00;0.00;;;;;28.26;44.36;100406.66;5054354;28;45454;-66
2021/09/10 05:16:43;;;;;;;;;0.00;0.00;;;;;28.25;44.13;100418.53;5054400;28;45572;-66
2021/09/10 05:19:12;;;;;;;;;0.00;0.00;;;;;28.25;44.42;100416.69;5054014;28;45463;-65
2021/09/10 05:21:44;;;;;;;;;0.00;0.00;;;;;28.25;44.04;100424.00;5054307;28;47198;-65
2021/09/10 05:24:09;;;;;;;;;0.00;0.00;;;;;28.25;44.25;100429.47;5054205;28;45545;-65
2021/09/10 05:26:35;;;;;;;;;0.00;0.00;;;;;28.25;44.10;100430.34;5036192;28;45356;-65
2021/09/10 05:29:00;;;;;;;;;0.00;0.00;;;;;28.24;43.76;100439.56;5054570;28;45868;-66
2021/09/10 05:31:26;;;;;;;;;0.00;0.00;;;;;28.25;44.23;100441.28;5057164;28;45482;-66
2021/09/10 05:33:54;;;;;;;;;0.00;0.00;;;;;28.23;43.98;100431.44;5054363;28;45623;-65
2021/09/10 05:36:20;;;;;;;;;0.00;0.00;;;;;28.25;44.67;100434.94;5054274;28;45424;-65
2021/09/10 05:38:45;;;;;;;;;0.00;0.00;;;;;28.26;44.44;100436.72;5036602;28;45463;-66
2021/09/10 05:41:11;;;;;;;;;0.00;0.00;;;;;28.22;44.18;100438.78;5036159;28;45605;-66
2021/09/10 05:43:36;;;;;;;;;0.67;0.00;;;;;28.18;44.37;100441.78;5054190;28;45590;-65
2021/09/10 05:46:02;;;;;;;;;0.00;0.00;;;;;28.23;44.05;100450.59;5036033;28;45645;-64
2021/09/10 05:48:27;;;;;;;;;0.00;0.00;;;;;28.26;43.89;100455.88;5054150;28;45534;-65
2021/09/10 05:50:52;;;;;;;;;0.00;0.00;;;;;28.24;44.31;100457.81;5053866;28;46118;-65
2021/09/10 05:53:18;;;;;;;;;0.00;0.00;;;;;28.24;43.93;100458.69;5053843;28;45531;-65
2021/09/10 05:55:44;;;;;;;;;0.00;0.00;;;;;28.25;43.65;100465.03;5035361;28;45799;-65
2021/09/10 05:58:09;;;;;;;;;0.00;0.00;;;;;28.24;44.32;100464.16;5054156;28;45538;-65
2021/09/10 06:00:38;;;;;;;;;0.00;0.00;;;;;28.25;43.88;100473.25;5053583;28;45910;-65
2021/09/10 06:03:06;;;;;;;;;0.00;0.00;;;;;28.24;44.38;100468.75;5053856;28;45389;-65
2021/09/10 06:05:32;;;;;;;;;0.00;0.00;;;;;28.22;44.17;100474.31;5054290;28;45513;-65
2021/09/10 06:07:57;;;;;;;;;0.00;0.00;;;;;28.23;44.13;100475.19;5053799;28;45472;-65
2021/09/10 06:10:23;;;;;;;;;0.00;0.00;;;;;28.22;43.86;100474.31;5053575;28;45505;-65
2021/09/10 06:12:50;;;;;;;;;0.00;0.00;;;;;28.23;44.07;100478.78;5053441;28;45439;-65
2021/09/10 06:15:16;;;;;;;;;0.00;0.00;;;;;28.21;44.33;100467.06;5053274;28;45924;-67
2021/09/10 06:17:42;;;;;;;;;1.00;1.00;;;;;28.20;44.11;100475.38;5053869;28;45335;-67
2021/09/10 06:20:14;;;;;;;;;5.00;4.00;;;;;28.13;44.40;100478.50;5034860;28;47060;-67
2021/09/10 06:22:40;;;;;;;;;1.67;1.67;;;;;28.04;44.75;100483.69;5035071;28;45625;-67
2021/09/10 06:25:09;;;;;;;;;3.00;3.00;;;;;27.95;45.55;100487.88;5053520;28;45787;-67
2021/09/10 06:27:34;;;;;;;;;3.33;2.33;;;;;27.81;45.84;100482.34;5054013;28;45393;-67
2021/09/10 06:30:00;;;;;;;;;3.00;3.00;;;;;27.79;45.68;100487.91;5054363;28;45440;-67
2021/09/10 06:32:25;;;;;;;;;4.33;4.33;;;;;27.74;45.97;100487.31;5057124;28;45868;-68
2021/09/10 06:34:54;;;;;;;;;3.67;3.67;;;;;27.67;46.38;100485.94;5039289;28;45440;-67
2021/09/10 06:37:20;;;;;;;;;6.33;5.00;;;;;27.60;46.48;100493.63;5038688;28;45543;-67
2021/09/10 06:39:47;;;;;;;;;6.00;4.33;;;;;27.57;46.94;100493.84;5056953;28;46168;-69
2021/09/10 06:42:12;;;;;;;;;3.00;3.00;;;;;27.50;46.37;100486.97;5056995;28;45468;-67
2021/09/10 06:44:38;;;;;;;;;3.67;3.67;;;;;27.47;47.11;100489.88;5057216;28;45435;-67
2021/09/10 06:47:03;;;;;;;;;4.33;4.33;;;;;27.41;47.18;100491.16;5057269;28;45432;-67
2021/09/10 06:49:29;;;;;;;;;4.00;4.00;;;;;27.39;47.14;100505.84;5038677;28;47974;-67
2021/09/10 06:51:54;;;;;;;;;5.33;5.33;;;;;27.33;47.02;100504.38;5056918;28;44809;-67
2021/09/10 06:54:20;;;;;;;;;2.00;2.00;;;;;27.30;47.61;100508.16;5057114;28;45415;-67
2021/09/10 06:56:45;;;;;;;;;6.00;4.00;;;;;27.29;47.11;100511.00;5038996;28;45446;-67
2021/09/10 06:59:11;;;;;;;;;3.33;3.33;;;;;27.27;47.74;100512.94;5056550;28;45434;-67
2021/09/10 07:01:36;;;;;;;;;3.00;3.00;;;;;27.26;47.62;100519.38;5056454;28;45804;-67
2021/09/10 07:04:02;;;;;;;;;3.67;3.67;;;;;27.23;47.80;100523.16;5056530;28;45679;-67
2021/09/10 07:06:29;;;;;;;;;4.00;4.00;;;;;27.22;47.52;100521.34;5056664;28;45563;-67
2021/09/10 07:08:57;;;;;;;;;4.00;4.00;;;;;27.20;47.61;100533.34;5056715;28;45448;-67
2021/09/10 07:11:22;;;;;;;;;4.33;3.00;;;;;27.17;47.70;100522.59;5056638;28;45445;-67
2021/09/10 07:13:49;;;;;;;;;5.67;4.33;;;;;27.15;48.09;100539.09;5056295;28;45484;-67
2021/09/10 07:16:15;;;;;;;;;5.00;3.67;;;;;27.12;47.89;100531.06;5056702;28;45474;-67
2021/09/10 07:18:40;;;;;;;;;4.00;4.00;;;;;27.08;48.39;100532.22;5056844;28;46298;-67
2021/09/10 07:21:06;;;;;;;;;5.00;3.67;;;;;27.05;48.51;100535.13;5056032;28;45505;-67
2021/09/10 07:23:32;;;;;;;;;4.33;4.33;;;;;27.03;48.11;100537.06;5038097;28;45423;-68
2021/09/10 07:26:02;;;;;;;;;2.00;2.00;;;;;27.03;48.53;100531.59;5058591;28;45416;-67
2021/09/10 07:28:28;;;;;;;;;5.00;5.00;;;;;27.01;48.15;100531.69;5056259;28;45382;-68
2021/09/10 07:30:55;;;;;;;;;3.33;3.33;;;;;26.99;48.93;100524.56;5056037;28;45532;-67
2021/09/10 07:33:20;;;;;;;;;5.33;5.33;;;;;26.98;48.47;100537.31;5055906;28;45448;-67
2021/09/10 07:35:45;;;;;;;;;6.67;5.33;;;;;26.94;48.40;100533.91;5038061;28;45354;-66
2021/09/10 07:38:11;;;;;;;;;3.67;3.67;;;;;26.95;49.08;100534.78;5055667;28;45921;-67
2021/09/10 07:40:37;;;;;;;;;6.67;4.00;;;;;26.92;49.07;100535.84;5055103;28;45534;-66
2021/09/10 07:43:02;;;;;;;;;6.67;6.67;;;;;26.91;48.55;100547.72;5055173;28;45524;-66
2021/09/10 07:45:28;;;;;;;;;5.00;5.00;;;;;26.89;49.34;100544.19;5055642;28;45717;-66
2021/09/10 07:47:53;;;;;;;;;8.00;7.00;;;;;26.89;48.95;100552.38;5055149;28;46449;-67
2021/09/10 07:50:19;;;;;;;;;6.00;6.00;;;;;26.85;49.59;100539.88;5037372;28;45529;-66
2021/09/10 07:52:44;;;;;;;;;4.33;4.33;;;;;26.89;49.16;100551.50;5055240;28;45510;-65
2021/09/10 07:55:10;;;;;;;;;6.67;5.00;;;;;26.86;49.49;100557.13;5055590;28;45539;-66
2021/09/10 07:57:35;;;;;;;;;5.00;4.67;;;;;26.84;48.89;100548.16;5055171;28;46129;-67
2021/09/10 08:00:01;;;;;;;;;5.00;5.00;;;;;26.79;49.57;100553.00;5055122;28;45485;-68
2021/09/10 08:02:27;;;;;;;;;8.00;6.00;;;;;26.75;49.50;100555.00;5055152;28;45404;-66
2021/09/10 08:04:53;;;;;;;;;6.33;5.00;;;;;26.68;49.11;100548.13;5037307;28;45446;-68
2021/09/10 08:07:18;;;;;;;;;5.67;5.67;;;;;26.66;49.35;100556.41;5055130;28;46154;-67
2021/09/10 08:09:44;;;;;;;;;6.67;6.00;;;;;26.65;50.14;100561.97;5054925;28;45412;-68
2021/09/10 08:12:09;;;;;;;;;7.67;7.67;;;;;26.63;49.73;100561.16;5055104;28;45736;-68
2021/09/10 08:14:34;;;;;;;;;6.00;4.67;;;;;26.61;50.10;100557.63;5055355;28;45421;-68
2021/09/10 08:17:00;;;;;;;;;4.67;4.33;;;;;26.62;50.15;100571.19;5036667;28;46195;-67
2021/09/10 08:19:27;;;;;;;;;3.00;3.00;;;;;26.63;49.95;100572.06;5054887;28;45447;-69
2021/09/10 08:21:52;;;;;;;;;6.00;6.00;;;;;26.63;49.76;100569.34;5054674;28;45496;-66
2021/09/10 08:24:17;;;;;;;;;4.00;4.00;;;;;26.64;49.64;100569.25;5055428;28;45471;-67
2021/09/10 08:26:43;;;;;;;;;4.00;3.67;;;;;26.67;49.76;100574.53;5054520;28;45509;-66
2021/09/10 08:29:08;;;;;;;;;5.67;5.00;;;;;26.67;49.47;100573.66;5054460;28;45457;-66
2021/09/10 08:31:34;;;;;;;;;4.67;4.67;;;;;26.67;49.48;100576.38;5037011;28;45542;-66
2021/09/10 08:34:00;;;;;;;;;3.67;3.67;;;;;26.69;49.95;100577.19;5055655;28;45451;-67
2021/09/10 08:36:26;;;;;;;;;3.00;3.00;;;;;26.72;49.93;100577.00;5055025;28;45977;-68
2021/09/10 08:38:52;;;;;;;;;4.00;4.00;;;;;26.70;49.39;100571.66;5055015;28;45671;-67
2021/09/10 08:41:22;;;;;;;;;4.33;4.33;;;;;26.75;49.59;100582.28;5055284;28;45489;-67
2021/09/10 08:43:49;;;;;;;;;3.00;3.00;;;;;26.78;49.96;100582.09;5055449;28;45781;-67
2021/09/10 08:46:15;;;;;;;;;3.00;3.00;;;;;26.81;49.25;100586.53;5054609;28;46441;-68
2021/09/10 08:48:46;;;;;;;;;3.00;3.00;;;;;26.85;49.60;100574.47;5055391;28;46054;-67
2021/09/10 08:51:12;;;;;;;;;3.33;3.33;;;;;26.84;49.66;100581.75;5055234;28;45517;-67
2021/09/10 08:53:37;;;;;;;;;4.00;3.00;;;;;26.88;49.12;100587.94;5020200;28;45479;-68
2021/09/10 08:56:04;;;;;;;;;4.00;4.00;;;;;26.88;49.24;100591.53;5037494;28;46956;-71
2021/09/10 08:58:30;;;;;;;;;4.00;3.33;;;;;26.90;49.03;100597.78;5036614;28;45548;-68
2021/09/10 09:00:59;;;;;;;;;2.33;2.33;;;;;26.91;48.96;100588.66;5054715;28;45504;-68
2021/09/10 09:03:30;;;;;;;;;3.33;3.33;;;;;26.92;48.84;100595.88;5054843;28;45426;-68
2021/09/10 09:05:56;;;;;;;;;3.33;3.33;;;;;26.93;49.51;100591.28;5054510;28;45518;-67
2021/09/10 09:08:23;;;;;;;;;4.00;4.00;;;;;26.97;49.13;100592.00;5054686;28;45557;-67
2021/09/10 09:11:04;;;;;;;;;5.67;4.67;;;;;26.97;49.41;100592.88;5035663;28;45488;-68
2021/09/10 09:13:39;;;;;;;;;4.33;4.00;;;;;26.98;48.82;100594.63;5054308;28;45469;-68
2021/09/10 09:16:26;;;;;;;;;7.00;5.00;;;;;27.01;49.25;100593.59;5054250;28;45382;-68
2021/09/10 09:18:57;;;;;;;;;6.00;6.00;;;;;27.00;48.84;100591.81;5054205;28;45305;-67
2021/09/10 09:21:33;;;;;;;;;5.33;4.00;;;;;27.05;49.27;100597.91;5035793;28;45516;-67
2021/09/10 09:24:16;;;;;;;;;4.00;4.00;;;;;27.07;48.81;100593.25;5035971;28;45612;-67
2021/09/10 09:26:43;;;;;;;;;3.00;3.00;;;;;27.07;48.63;100594.13;5053974;28;45361;-67
2021/09/10 09:29:12;;;;;;;;;6.00;3.67;;;;;27.09;49.29;100603.09;5054151;28;45560;-67
2021/09/10 09:31:39;;;;;;;;;3.33;3.33;;;;;27.12;48.69;100602.91;5053509;28;45463;-67
2021/09/10 09:34:06;;;;;;;;;2.67;2.67;;;;;27.16;48.39;100611.81;5053810;28;45530;-67
2021/09/10 09:36:33;;;;;;;;;1.00;1.00;;;;;27.17;48.37;100601.75;5050859;28;47287;-67
2021/09/10 09:38:59;;;;;;;;;3.67;3.67;;;;;27.19;48.33;100603.47;5055092;28;45465;-67
2021/09/10 09:41:25;;;;;;;;;1.67;1.33;;;;;27.21;48.32;100604.25;5055641;28;45448;-67
2021/09/10 09:44:14;;;;;;;;;3.00;3.00;;;;;27.23;48.94;100610.53;5074193;28;45475;-68
2021/09/10 09:46:41;;;;;;;;;3.00;3.00;;;;;27.25;48.12;100613.19;5054811;28;46124;-68
2021/09/10 09:49:09;;;;;;;;;1.00;1.00;;;;;27.26;48.81;100604.00;5073752;28;45888;-67
2021/09/10 09:51:34;;;;;;;;;4.00;3.67;;;;;27.28;48.44;100610.25;5055850;28;45482;-68
2021/09/10 09:54:00;;;;;;;;;4.00;2.33;;;;;27.30;48.65;100606.47;5073867;28;45700;-66
2021/09/10 09:56:28;;;;;;;;;2.00;2.00;;;;;27.32;48.17;100603.66;5073538;28;45536;-67
2021/09/10 09:58:54;;;;;;;;;5.00;5.00;;;;;27.31;48.08;100602.78;5073899;28;45504;-67
2021/09/10 10:01:20;;;;;;;;;2.67;2.67;;;;;27.34;48.61;100604.44;5073759;28;45437;-68
2021/09/10 10:03:46;;;;;;;;;2.67;2.67;;;;;27.31;48.54;100602.78;5074337;28;45493;-67
2021/09/10 10:06:26;;;;;;;;;3.00;3.00;;;;;27.31;48.17;100594.59;5073467;28;46342;-68
2021/09/10 10:08:59;;;;;;;;;2.00;0.67;;;;;27.36;47.91;100599.78;5074065;28;45491;-67
2021/09/10 10:11:31;;;;;;;;;2.00;2.00;;;;;27.37;47.81;100595.19;5074014;28;45408;-67
2021/09/10 10:14:02;;;;;;;;;2.00;2.00;;;;;27.37;48.14;100592.44;5073783;28;45676;-68
2021/09/10 10:16:45;;;;;;;;;2.67;2.67;;;;;27.38;48.04;100591.50;5074025;28;46164;-68
2021/09/10 10:19:24;;;;;;;;;4.00;4.00;;;;;27.41;47.88;100596.75;5073663;28;45710;-68
2021/09/10 10:22:30;;;;;;;;;3.00;3.00;;;;;27.43;48.22;100586.63;5074214;28;45456;-72
2021/09/10 10:24:57;;;;;;;;;5.00;3.00;;;;;27.42;47.47;100582.16;5073701;28;45435;-67
2021/09/10 10:27:38;;;;;;;;;2.00;2.00;;;;;27.45;47.68;100582.84;5055414;28;45392;-68
2021/09/10 10:30:28;;;;;;;;;3.00;3.00;;;;;27.46;47.13;100584.59;5073552;28;45457;-69
2021/09/10 10:32:54;;;;;;;;;2.00;2.00;;;;;27.47;47.69;100580.00;5073220;28;45480;-68
2021/09/10 10:35:39;;;;;;;;;2.00;2.00;;;;;27.50;47.30;100574.38;5073365;28;45416;-68
2021/09/10 10:38:07;;;;;;;;;4.33;3.00;;;;;27.52;47.08;100572.44;5073315;28;45500;-68
2021/09/10 10:40:36;;;;;;;;;2.00;2.00;;;;;27.54;46.88;100567.75;5073231;28;45461;-68
2021/09/10 10:43:06;;;;;;;;;2.33;2.33;;;;;27.53;47.56;100569.63;5073386;28;45697;-68
2021/09/10 10:45:47;;;;;;;;;3.00;3.00;;;;;27.57;47.26;100574.88;5073585;28;45579;-67
2021/09/10 10:48:27;;;;;;;;;3.67;3.00;;;;;27.59;46.80;100568.38;5072679;28;46221;-68
2021/09/10 10:50:53;;;;;;;;;3.67;2.67;;;;;27.61;46.67;100560.97;5073497;28;45681;-66
2021/09/10 10:53:20;;;;;;;;;3.00;3.00;;;;;27.64;46.77;100566.25;5073366;28;45488;-67
2021/09/10 10:55:46;;;;;;;;;3.00;3.00;;;;;27.63;46.81;100553.56;5073142;28;45437;-67
2021/09/10 10:58:23;;;;;;;;;3.33;3.33;;;;;27.66;46.86;100564.28;5072891;28;46174;-67
2021/09/10 11:01:06;;;;;;;;;1.33;1.33;;;;;27.68;46.59;100561.47;5054156;28;45448;-67
2021/09/10 11:03:35;;;;;;;;;3.00;2.00;;;;;27.71;46.36;100567.66;5073019;28;45731;-67
2021/09/10 11:06:25;;;;;;;;;1.67;1.67;;;;;27.73;46.63;100570.25;5073119;28;45414;-67
2021/09/10 11:08:50;;;;;;;;;4.00;3.00;;;;;27.70;46.23;100571.34;5072721;28;45568;-67
2021/09/10 11:11:17;;;;;;;;;4.67;3.00;;;;;27.61;46.17;100571.91;5072501;28;44819;-68
2021/09/10 11:13:42;;;;;;;;;1.67;0.00;;;;;27.51;46.29;100576.13;5072546;28;45587;-68
2021/09/10 11:16:15;;;;;;;;;3.33;3.33;;;;;27.48;46.29;100565.41;5074154;28;45383;-68
2021/09/10 11:18:45;;;;;;;;;2.00;2.00;;;;;27.46;46.40;100578.28;5076864;28;45502;-68
2021/09/10 11:21:10;;;;;;;;;3.00;2.67;;;;;27.41;47.26;100564.00;5075504;28;45490;-67
2021/09/10 11:23:37;;;;;;;;;1.00;1.00;;;;;27.39;46.99;100572.28;5076491;28;45432;-67